Terminal Aerodrome Forecast
Issued by NWS

Home | Current Version | Previous Version | Text Only | Print | Product List | Glossary On
Versions: 1 2 3 4 5 6 7 8 9 10 11 12
000
FTUS43 KICT 271142
TAFRSL
TAF
KRSL 271142Z 2712/2812 14008KT P6SM SKC
     FM271500 16012KT P6SM BKN020
     FM271800 17014G21KT P6SM SCT030 BKN250
     FM280000 17011KT P6SM FEW025 BKN200
     FM281000 23011KT P6SM BKN200=

USA.gov is the U.S. government's official web portal to all federal, state and local government web resources and services.